Terminal Aerodrome Forecast
Issued by NWS Billings, MT

Home | Current Version | Previous Version | Graphics & Text | Print | Product List | Glossary On
Versions: 1 2 3 4 5 6 7 8 9 10 11 12 13 14 15 16 17 18 19 20 21 22 23 24 25 26 27 28 29
000
FTUS45 KBYZ 312227 AAB
TAFMLS
TAF AMD
KMLS 312227Z 3122/0118 33012G20KT P6SM FEW080
     FM010000 32010KT P6SM VCTS SCT070CB BKN150
     FM010400 VRB05KT P6SM FEW040 BKN090
     FM011700 29012KT P6SM FEW080 SCT150 BKN200=

USA.gov is the U.S. government's official web portal to all federal, state and local government web resources and services.